Time,TemperatureF,DewpointF,PressureIn,WindDirection,WindDirectionDegrees,WindSpeedMPH,WindSpeedGustMPH,Humidity,HourlyPrecipIn,Conditions,Clouds,dailyrainin,SoftwareType,DateUTC
2013-04-20 00:03:00,65.0,-99.9,-100.00,North,-999,-999.0,-999.0,-999,0.02,,,0.02,,2013-04-20 04:03:00,
2013-04-20 00:13:00,65.0,-99.9,-100.00,North,-999,-999.0,-999.0,-999,0.02,,,0.02,,2013-04-20 04:13:00,
2013-04-20 00:23:00,65.0,-99.9,-100.00,North,-999,-999.0,-999.0,-999,0.02,,,0.02,,2013-04-20 04:23:00,
2013-04-20 00:33:00,65.0,-99.9,-100.00,North,-999,-999.0,-999.0,-999,0.02,,,0.02,,2013-04-20 04:33:00,
2013-04-20 00:43:00,65.0,-99.9,-100.00,North,-999,-999.0,-999.0,-999,0.02,,,0.02,,2013-04-20 04:43:00,
2013-04-20 01:02:00,61.0,-99.9,-100.00,North,-999,-999.0,-999.0,-999,0.24,,,0.26,,2013-04-20 05:02:00,
2013-04-20 01:12:00,61.0,-99.9,-100.00,North,-999,-999.0,-999.0,-999,0.24,,,0.26,,2013-04-20 05:12:00,
2013-04-20 01:22:00,61.0,-99.9,-100.00,North,-999,-999.0,-999.0,-999,0.24,,,0.26,,2013-04-20 05:22:00,
2013-04-20 01:32:00,61.0,-99.9,-100.00,North,-999,-999.0,-999.0,-999,0.24,,,0.26,,2013-04-20 05:32:00,
2013-04-20 01:43:00,61.0,-99.9,-100.00,North,-999,-999.0,-999.0,-999,0.24,,,0.26,,2013-04-20 05:43:00,
2013-04-20 02:02:00,59.0,-99.9,-100.00,North,-999,-999.0,-999.0,-999,0.04,,,0.30,,2013-04-20 06:02:00,
2013-04-20 02:12:00,59.0,-99.9,-100.00,North,-999,-999.0,-999.0,-999,0.04,,,0.30,,2013-04-20 06:12:00,
2013-04-20 02:22:00,59.0,-99.9,-100.00,North,-999,-999.0,-999.0,-999,0.04,,,0.30,,2013-04-20 06:22:00,
2013-04-20 02:32:00,59.0,-99.9,-100.00,North,-999,-999.0,-999.0,-999,0.04,,,0.30,,2013-04-20 06:32:00,
2013-04-20 02:42:00,59.0,-99.9,-100.00,North,-999,-999.0,-999.0,-999,0.04,,,0.30,,2013-04-20 06:42:00,
2013-04-20 03:02:00,54.0,-99.9,-100.00,North,-999,-999.0,-999.0,-999,0.02,,,0.32,,2013-04-20 07:02:00,
2013-04-20 03:11:00,54.0,-99.9,-100.00,North,-999,-999.0,-999.0,-999,0.02,,,0.32,,2013-04-20 07:11:00,
2013-04-20 03:22:00,54.0,-99.9,-100.00,North,-999,-999.0,-999.0,-999,0.02,,,0.32,,2013-04-20 07:22:00,
2013-04-20 03:32:00,54.0,-99.9,-100.00,North,-999,-999.0,-999.0,-999,0.02,,,0.32,,2013-04-20 07:32:00,
2013-04-20 03:42:00,54.0,-99.9,-100.00,North,-999,-999.0,-999.0,-999,0.02,,,0.32,,2013-04-20 07:42:00,
2013-04-20 04:02:00,49.0,-99.9,-100.00,North,-999,-999.0,-999.0,-999,0.02,,,0.34,,2013-04-20 08:02:00,
2013-04-20 04:11:00,49.0,-99.9,-100.00,North,-999,-999.0,-999.0,-999,0.02,,,0.34,,2013-04-20 08:11:00,
2013-04-20 04:22:00,49.0,-99.9,-100.00,North,-999,-999.0,-999.0,-999,0.02,,,0.34,,2013-04-20 08:22:00,
2013-04-20 04:32:00,49.0,-99.9,-100.00,North,-999,-999.0,-999.0,-999,0.02,,,0.34,,2013-04-20 08:32:00,
2013-04-20 04:42:00,49.0,-99.9,-100.00,North,-999,-999.0,-999.0,-999,0.02,,,0.34,,2013-04-20 08:42:00,
2013-04-20 05:02:00,46.0,-99.9,-100.00,North,-999,-999.0,-999.0,-999,0.01,,,0.35,,2013-04-20 09:02:00,
2013-04-20 05:12:00,46.0,-99.9,-100.00,North,-999,-999.0,-999.0,-999,0.01,,,0.35,,2013-04-20 09:12:00,
2013-04-20 05:22:00,46.0,-99.9,-100.00,North,-999,-999.0,-999.0,-999,0.01,,,0.35,,2013-04-20 09:22:00,
2013-04-20 05:33:00,46.0,-99.9,-100.00,North,-999,-999.0,-999.0,-999,0.01,,,0.35,,2013-04-20 09:33:00,
2013-04-20 05:43:00,46.0,-99.9,-100.00,North,-999,-999.0,-999.0,-999,0.01,,,0.35,,2013-04-20 09:43:00,
2013-04-20 06:03:00,43.0,-99.9,-100.00,North,-999,-999.0,-999.0,-999,0.04,,,0.39,,2013-04-20 10:03:00,
2013-04-20 06:13:00,43.0,-99.9,-100.00,North,-999,-999.0,-999.0,-999,0.04,,,0.39,,2013-04-20 10:13:00,
2013-04-20 06:23:00,43.0,-99.9,-100.00,North,-999,-999.0,-999.0,-999,0.04,,,0.39,,2013-04-20 10:23:00,
2013-04-20 06:33:00,43.0,-99.9,-100.00,North,-999,-999.0,-999.0,-999,0.04,,,0.39,,2013-04-20 10:33:00,
2013-04-20 06:43:00,43.0,-99.9,-100.00,North,-999,-999.0,-999.0,-999,0.04,,,0.39,,2013-04-20 10:43:00,
2013-04-20 07:03:00,43.0,-99.9,-100.00,North,-999,-999.0,-999.0,-999,0.01,,,0.40,,2013-04-20 11:03:00,
2013-04-20 07:12:00,43.0,-99.9,-100.00,North,-999,-999.0,-999.0,-999,0.01,,,0.40,,2013-04-20 11:12:00,
2013-04-20 07:23:00,43.0,-99.9,-100.00,North,-999,-999.0,-999.0,-999,0.01,,,0.40,,2013-04-20 11:23:00,
2013-04-20 07:32:00,43.0,-99.9,-100.00,North,-999,-999.0,-999.0,-999,0.01,,,0.40,,2013-04-20 11:32:00,
2013-04-20 07:42:00,43.0,-99.9,-100.00,North,-999,-999.0,-999.0,-999,0.01,,,0.40,,2013-04-20 11:42:00,
2013-04-20 08:02:00,43.0,-99.9,-100.00,North,-999,-999.0,-999.0,-999,0.01,,,0.41,,2013-04-20 12:02:00,
2013-04-20 08:11:00,43.0,-99.9,-100.00,North,-999,-999.0,-999.0,-999,0.01,,,0.41,,2013-04-20 12:11:00,
2013-04-20 08:23:00,43.0,-99.9,-100.00,North,-999,-999.0,-999.0,-999,0.01,,,0.41,,2013-04-20 12:23:00,
2013-04-20 08:32:00,43.0,-99.9,-100.00,North,-999,-999.0,-999.0,-999,0.01,,,0.41,,2013-04-20 12:32:00,
2013-04-20 08:42:00,43.0,-99.9,-100.00,North,-999,-999.0,-999.0,-999,0.01,,,0.41,,2013-04-20 12:42:00,
2013-04-20 09:02:00,45.0,-99.9,-100.00,North,-999,-999.0,-999.0,-999,0.00,,,0.41,,2013-04-20 13:02:00,
2013-04-20 09:12:00,45.0,-99.9,-100.00,North,-999,-999.0,-999.0,-999,0.00,,,0.41,,2013-04-20 13:12:00,
2013-04-20 09:22:00,45.0,-99.9,-100.00,North,-999,-999.0,-999.0,-999,0.00,,,0.41,,2013-04-20 13:22:00,
2013-04-20 09:32:00,45.0,-99.9,-100.00,North,-999,-999.0,-999.0,-999,0.00,,,0.41,,2013-04-20 13:32:00,
2013-04-20 09:42:00,45.0,-99.9,-100.00,North,-999,-999.0,-999.0,-999,0.00,,,0.41,,2013-04-20 13:42:00,
2013-04-20 10:02:00,47.0,-99.9,-100.00,North,-999,-999.0,-999.0,-999,0.00,,,0.41,,2013-04-20 14:02:00,
2013-04-20 10:12:00,47.0,-99.9,-100.00,North,-999,-999.0,-999.0,-999,0.00,,,0.41,,2013-04-20 14:12:00,
2013-04-20 10:22:00,47.0,-99.9,-100.00,North,-999,-999.0,-999.0,-999,0.00,,,0.41,,2013-04-20 14:22:00,
2013-04-20 10:32:00,47.0,-99.9,-100.00,North,-999,-999.0,-999.0,-999,0.00,,,0.41,,2013-04-20 14:32:00,
2013-04-20 10:42:00,47.0,-99.9,-100.00,North,-999,-999.0,-999.0,-999,0.00,,,0.41,,2013-04-20 14:42:00,
2013-04-20 11:02:00,49.0,-99.9,-100.00,North,-999,-999.0,-999.0,-999,0.00,,,0.41,,2013-04-20 15:02:00,
2013-04-20 11:12:00,49.0,-99.9,-100.00,North,-999,-999.0,-999.0,-999,0.00,,,0.41,,2013-04-20 15:12:00,
2013-04-20 11:22:00,49.0,-99.9,-100.00,North,-999,-999.0,-999.0,-999,0.00,,,0.41,,2013-04-20 15:22:00,
2013-04-20 11:34:00,49.0,-99.9,-100.00,North,-999,-999.0,-999.0,-999,0.00,,,0.41,,2013-04-20 15:34:00,
2013-04-20 11:43:00,49.0,-99.9,-100.00,North,-999,-999.0,-999.0,-999,0.00,,,0.41,,2013-04-20 15:43:00,
2013-04-20 12:03:00,51.0,-99.9,-100.00,North,-999,-999.0,-999.0,-999,0.00,,,0.41,,2013-04-20 16:03:00,
2013-04-20 12:12:00,51.0,-99.9,-100.00,North,-999,-999.0,-999.0,-999,0.00,,,0.41,,2013-04-20 16:12:00,
2013-04-20 12:23:00,51.0,-99.9,-100.00,North,-999,-999.0,-999.0,-999,0.00,,,0.41,,2013-04-20 16:23:00,
2013-04-20 12:33:00,51.0,-99.9,-100.00,North,-999,-999.0,-999.0,-999,0.00,,,0.41,,2013-04-20 16:33:00,
2013-04-20 12:42:00,51.0,-99.9,-100.00,North,-999,-999.0,-999.0,-999,0.00,,,0.41,,2013-04-20 16:42:00,
2013-04-20 13:03:00,52.0,-99.9,-100.00,North,-999,-999.0,-999.0,-999,0.00,,,0.41,,2013-04-20 17:03:00,
2013-04-20 13:12:00,52.0,-99.9,-100.00,North,-999,-999.0,-999.0,-999,0.00,,,0.41,,2013-04-20 17:12:00,
2013-04-20 13:23:00,52.0,-99.9,-100.00,North,-999,-999.0,-999.0,-999,0.00,,,0.41,,2013-04-20 17:23:00,
2013-04-20 13:33:00,52.0,-99.9,-100.00,North,-999,-999.0,-999.0,-999,0.00,,,0.41,,2013-04-20 17:33:00,
2013-04-20 13:42:00,52.0,-99.9,-100.00,North,-999,-999.0,-999.0,-999,0.00,,,0.41,,2013-04-20 17:42:00,
2013-04-20 14:02:00,51.0,-99.9,-100.00,North,-999,-999.0,-999.0,-999,0.00,,,0.41,,2013-04-20 18:02:00,
2013-04-20 14:13:00,51.0,-99.9,-100.00,North,-999,-999.0,-999.0,-999,0.00,,,0.41,,2013-04-20 18:13:00,
2013-04-20 14:22:00,51.0,-99.9,-100.00,North,-999,-999.0,-999.0,-999,0.00,,,0.41,,2013-04-20 18:22:00,
2013-04-20 14:32:00,51.0,-99.9,-100.00,North,-999,-999.0,-999.0,-999,0.00,,,0.41,,2013-04-20 18:32:00,
2013-04-20 14:42:00,51.0,-99.9,-100.00,North,-999,-999.0,-999.0,-999,0.00,,,0.41,,2013-04-20 18:42:00,
2013-04-20 15:02:00,54.0,-99.9,-100.00,North,-999,-999.0,-999.0,-999,0.00,,,0.41,,2013-04-20 19:02:00,
2013-04-20 15:12:00,54.0,-99.9,-100.00,North,-999,-999.0,-999.0,-999,0.00,,,0.41,,2013-04-20 19:12:00,
2013-04-20 15:22:00,54.0,-99.9,-100.00,North,-999,-999.0,-999.0,-999,0.00,,,0.41,,2013-04-20 19:22:00,
2013-04-20 15:32:00,54.0,-99.9,-100.00,North,-999,-999.0,-999.0,-999,0.00,,,0.41,,2013-04-20 19:32:00,
2013-04-20 15:42:00,54.0,-99.9,-100.00,North,-999,-999.0,-999.0,-999,0.00,,,0.41,,2013-04-20 19:42:00,
2013-04-20 16:02:00,53.0,-99.9,-100.00,North,-999,-999.0,-999.0,-999,0.00,,,0.41,,2013-04-20 20:02:00,
2013-04-20 16:12:00,53.0,-99.9,-100.00,North,-999,-999.0,-999.0,-999,0.00,,,0.41,,2013-04-20 20:12:00,
2013-04-20 16:22:00,53.0,-99.9,-100.00,North,-999,-999.0,-999.0,-999,0.00,,,0.41,,2013-04-20 20:22:00,
2013-04-20 16:32:00,53.0,-99.9,-100.00,North,-999,-999.0,-999.0,-999,0.00,,,0.41,,2013-04-20 20:32:00,
2013-04-20 16:42:00,53.0,-99.9,-100.00,North,-999,-999.0,-999.0,-999,0.00,,,0.41,,2013-04-20 20:42:00,
2013-04-20 17:02:00,53.0,-99.9,-100.00,North,-999,-999.0,-999.0,-999,0.00,,,0.41,,2013-04-20 21:02:00,
2013-04-20 17:12:00,53.0,-99.9,-100.00,North,-999,-999.0,-999.0,-999,0.00,,,0.41,,2013-04-20 21:12:00,
2013-04-20 17:22:00,53.0,-99.9,-100.00,North,-999,-999.0,-999.0,-999,0.00,,,0.41,,2013-04-20 21:22:00,
2013-04-20 17:33:00,53.0,-99.9,-100.00,North,-999,-999.0,-999.0,-999,0.00,,,0.41,,2013-04-20 21:33:00,
2013-04-20 17:43:00,53.0,-99.9,-100.00,North,-999,-999.0,-999.0,-999,0.00,,,0.41,,2013-04-20 21:43:00,
2013-04-20 18:03:00,52.0,-99.9,-100.00,North,-999,-999.0,-999.0,-999,0.00,,,0.41,,2013-04-20 22:03:00,
2013-04-20 18:13:00,52.0,-99.9,-100.00,North,-999,-999.0,-999.0,-999,0.00,,,0.41,,2013-04-20 22:13:00,
2013-04-20 18:23:00,52.0,-99.9,-100.00,North,-999,-999.0,-999.0,-999,0.00,,,0.41,,2013-04-20 22:23:00,
2013-04-20 18:33:00,52.0,-99.9,-100.00,North,-999,-999.0,-999.0,-999,0.00,,,0.41,,2013-04-20 22:33:00,
2013-04-20 18:42:00,52.0,-99.9,-100.00,North,-999,-999.0,-999.0,-999,0.00,,,0.41,,2013-04-20 22:42:00,
2013-04-20 19:02:00,50.0,-99.9,-100.00,North,-999,-999.0,-999.0,-999,0.00,,,0.41,,2013-04-20 23:02:00,
2013-04-20 19:12:00,50.0,-99.9,-100.00,North,-999,-999.0,-999.0,-999,0.00,,,0.41,,2013-04-20 23:12:00,
2013-04-20 19:22:00,50.0,-99.9,-100.00,North,-999,-999.0,-999.0,-999,0.00,,,0.41,,2013-04-20 23:22:00,
2013-04-20 19:32:00,50.0,-99.9,-100.00,North,-999,-999.0,-999.0,-999,0.00,,,0.41,,2013-04-20 23:32:00,
2013-04-20 19:42:00,50.0,-99.9,-100.00,North,-999,-999.0,-999.0,-999,0.00,,,0.41,,2013-04-20 23:42:00,
2013-04-20 20:02:00,47.0,-99.9,-100.00,North,-999,-999.0,-999.0,-999,0.00,,,0.41,,2013-04-21 00:02:00,
2013-04-20 20:12:00,47.0,-99.9,-100.00,North,-999,-999.0,-999.0,-999,0.00,,,0.41,,2013-04-21 00:12:00,
2013-04-20 20:22:00,47.0,-99.9,-100.00,North,-999,-999.0,-999.0,-999,0.00,,,0.41,,2013-04-21 00:22:00,
2013-04-20 20:32:00,47.0,-99.9,-100.00,North,-999,-999.0,-999.0,-999,0.00,,,0.41,,2013-04-21 00:32:00,
2013-04-20 20:42:00,47.0,-99.9,-100.00,North,-999,-999.0,-999.0,-999,0.00,,,0.41,,2013-04-21 00:42:00,
2013-04-20 21:01:00,45.0,-99.9,-100.00,North,-999,-999.0,-999.0,-999,0.00,,,0.41,,2013-04-21 01:01:00,
2013-04-20 21:12:00,45.0,-99.9,-100.00,North,-999,-999.0,-999.0,-999,0.00,,,0.41,,2013-04-21 01:12:00,
2013-04-20 21:22:00,45.0,-99.9,-100.00,North,-999,-999.0,-999.0,-999,0.00,,,0.41,,2013-04-21 01:22:00,
2013-04-20 21:32:00,45.0,-99.9,-100.00,North,-999,-999.0,-999.0,-999,0.00,,,0.41,,2013-04-21 01:32:00,
2013-04-20 21:42:00,45.0,-99.9,-100.00,North,-999,-999.0,-999.0,-999,0.00,,,0.41,,2013-04-21 01:42:00,
2013-04-20 22:02:00,43.0,-99.9,-100.00,North,-999,-999.0,-999.0,-999,0.00,,,0.41,,2013-04-21 02:02:00,
2013-04-20 22:11:00,43.0,-99.9,-100.00,North,-999,-999.0,-999.0,-999,0.00,,,0.41,,2013-04-21 02:11:00,
2013-04-20 22:22:00,43.0,-99.9,-100.00,North,-999,-999.0,-999.0,-999,0.00,,,0.41,,2013-04-21 02:22:00,
2013-04-20 22:32:00,43.0,-99.9,-100.00,North,-999,-999.0,-999.0,-999,0.00,,,0.41,,2013-04-21 02:32:00,
2013-04-20 22:42:00,43.0,-99.9,-100.00,North,-999,-999.0,-999.0,-999,0.00,,,0.41,,2013-04-21 02:42:00,
2013-04-20 23:02:00,41.0,-99.9,-100.00,North,-999,-999.0,-999.0,-999,0.00,,,0.41,,2013-04-21 03:02:00,
2013-04-20 23:11:00,41.0,-99.9,-100.00,North,-999,-999.0,-999.0,-999,0.00,,,0.41,,2013-04-21 03:11:00,
2013-04-20 23:22:00,41.0,-99.9,-100.00,North,-999,-999.0,-999.0,-999,0.00,,,0.41,,2013-04-21 03:22:00,
2013-04-20 23:33:00,41.0,-99.9,-100.00,North,-999,-999.0,-999.0,-999,0.00,,,0.41,,2013-04-21 03:33:00,
2013-04-20 23:43:00,41.0,-99.9,-100.00,North,-999,-999.0,-999.0,-999,0.00,,,0.41,,2013-04-21 03:43:00,